Time;durP1;ratioP1;P1;durP2;ratioP2;P2;SDS_P1;SDS_P2;PMS_P1;PMS_P2;Temp;Humidity;BMP_temperature;BMP_pressure;BME280_temperature;BME280_humidity;BME280_pressure;Samples;Min_cycle;Max_cycle;Signal;HPM_P1;HPM_P2
2022/03/04 00:01:18;;;;;;;23.63;12.90;;;;;;;;;;5041193;28;20169;-88
2022/03/04 00:03:44;;;;;;;24.90;13.02;;;-1.20;99.90;;;;;;5034929;28;20193;-87
2022/03/04 00:06:10;;;;;;;25.10;13.23;;;;;;;;;;5064103;28;20180;-86
2022/03/04 00:08:36;;;;;;;24.60;11.48;;;-1.20;99.90;;;;;;5042710;28;21042;-86
2022/03/04 00:11:02;;;;;;;23.77;11.80;;;-1.30;99.90;;;;;;5055587;28;20173;-85
2022/03/04 00:13:29;;;;;;;22.53;10.73;;;-1.50;99.90;;;;;;5042877;28;20181;-85
2022/03/04 00:15:55;;;;;;;22.85;11.90;;;;;;;;;;5045716;28;20422;-84
2022/03/04 00:18:21;;;;;;;21.17;12.20;;;;;;;;;;5040964;28;20181;-83
2022/03/04 00:20:47;;;;;;;22.57;12.03;;;-1.50;99.90;;;;;;5042304;28;20158;-83
2022/03/04 00:23:14;;;;;;;23.73;11.97;;;-1.60;99.90;;;;;;5042548;28;21178;-84
2022/03/04 00:25:40;;;;;;;25.15;12.40;;;;;;;;;;5035378;28;20280;-85
2022/03/04 00:28:05;;;;;;;31.17;12.90;;;-1.60;99.90;;;;;;5033309;28;20209;-84
2022/03/04 00:30:31;;;;;;;24.80;11.50;;;-1.70;99.90;;;;;;5042600;28;20520;-84
2022/03/04 00:32:57;;;;;;;25.70;12.45;;;-1.70;99.90;;;;;;5043136;28;20191;-84
2022/03/04 00:35:24;;;;;;;20.63;11.27;;;-1.70;99.90;;;;;;5058125;28;20275;-85
2022/03/04 00:37:49;;;;;;;26.77;12.80;;;-1.30;99.90;;;;;;5058348;28;20498;-83
2022/03/04 00:40:15;;;;;;;24.50;13.30;;;-1.90;99.90;;;;;;5056615;28;20185;-83
2022/03/04 00:42:41;;;;;;;33.25;14.25;;;-1.80;99.90;;;;;;5055857;28;20173;-84
2022/03/04 00:45:07;;;;;;;34.57;12.70;;;-1.80;99.90;;;;;;5059926;28;20205;-84
2022/03/04 00:47:33;;;;;;;24.63;13.98;;;-1.80;99.90;;;;;;5064755;28;20173;-83
2022/03/04 00:50:01;;;;;;;27.03;13.47;;;-1.60;99.90;;;;;;5057410;28;20195;-82
2022/03/04 00:52:27;;;;;;;26.73;12.27;;;-1.80;99.90;;;;;;5059188;28;20181;-86
2022/03/04 00:54:52;;;;;;;22.07;11.70;;;-1.50;99.90;;;;;;5045090;28;20326;-84
2022/03/04 00:57:18;;;;;;;21.40;13.30;;;-1.90;99.90;;;;;;5050009;28;20184;-85
2022/03/04 00:59:43;;;;;;;24.80;12.70;;;-1.90;99.90;;;;;;5062711;28;20189;-84
2022/03/04 01:02:09;;;;;;;24.57;12.47;;;-1.40;99.90;;;;;;5038314;28;20707;-86
2022/03/04 01:04:34;;;;;;;21.00;12.20;;;-1.90;99.90;;;;;;5044023;28;20295;-83
2022/03/04 01:07:00;;;;;;;22.07;12.30;;;-2.00;99.90;;;;;;5045587;28;20177;-86
2022/03/04 01:09:25;;;;;;;23.87;13.30;;;-2.00;99.90;;;;;;5047987;28;20180;-84
2022/03/04 01:11:51;;;;;;;27.23;11.60;;;-2.00;99.90;;;;;;5042135;28;20639;-85
2022/03/04 01:14:16;;;;;;;20.17;11.47;;;-2.00;99.90;;;;;;5044008;28;20256;-84
2022/03/04 01:16:42;;;;;;;21.20;12.00;;;-2.10;99.90;;;;;;5045810;28;20189;-84
2022/03/04 01:19:08;;;;;;;28.00;13.87;;;-2.00;99.90;;;;;;5044462;28;20200;-84
2022/03/04 01:21:34;;;;;;;25.63;12.20;;;-2.10;99.90;;;;;;5061237;28;20196;-86
2022/03/04 01:24:00;;;;;;;26.63;13.35;;;-2.10;99.90;;;;;;5043744;28;20448;-86
2022/03/04 01:26:25;;;;;;;36.13;13.95;;;-2.10;99.90;;;;;;5043326;28;20293;-85
2022/03/04 01:28:51;;;;;;;26.63;14.30;;;-2.10;99.90;;;;;;5046269;28;20170;-84
2022/03/04 01:31:17;;;;;;;26.10;14.33;;;-2.10;99.90;;;;;;5064053;28;20184;-83
2022/03/04 01:33:42;;;;;;;24.10;11.37;;;-2.20;99.90;;;;;;5062969;28;20180;-83
2022/03/04 01:36:08;;;;;;;33.93;12.80;;;-2.20;99.90;;;;;;5064052;28;20185;-83
2022/03/04 01:38:34;;;;;;;26.77;13.43;;;-2.30;99.90;;;;;;5046952;28;20192;-83
2022/03/04 01:41:00;;;;;;;21.75;11.18;;;-2.30;99.90;;;;;;5058921;28;20169;-85
2022/03/04 01:43:25;;;;;;;26.53;13.03;;;-2.40;99.90;;;;;;5044854;28;20807;-85
2022/03/04 01:45:52;;;;;;;28.80;13.50;;;-2.40;99.90;;;;;;5050231;28;20185;-83
2022/03/04 01:48:20;;;;;;;27.45;13.80;;;-2.50;99.90;;;;;;5044703;28;20295;-84
2022/03/04 01:50:50;;;;;;;29.70;15.85;;;-2.80;99.90;;;;;;5060603;28;20177;-83
2022/03/04 01:53:17;;;;;;;26.42;13.77;;;-2.50;99.90;;;;;;5062691;28;20177;-83
2022/03/04 01:55:43;;;;;;;27.15;14.98;;;-2.50;99.90;;;;;;5065434;28;20293;-84
2022/03/04 01:58:09;;;;;;;26.60;13.60;;;-2.50;99.90;;;;;;5061113;28;20180;-85
2022/03/04 02:00:34;;;;;;;23.13;12.60;;;-2.50;99.90;;;;;;5044408;28;20197;-84
2022/03/04 02:03:00;;;;;;;23.63;13.43;;;-2.50;99.90;;;;;;5043080;28;20212;-84
2022/03/04 02:05:26;;;;;;;24.80;13.13;;;-2.50;99.90;;;;;;5044869;28;20224;-83
2022/03/04 02:07:52;;;;;;;27.23;15.30;;;-2.60;99.90;;;;;;5062235;28;20530;-84
2022/03/04 02:10:18;;;;;;;31.60;15.27;;;-2.60;99.90;;;;;;5046164;28;21045;-84
2022/03/04 02:12:43;;;;;;;28.03;15.70;;;-2.60;99.90;;;;;;5059770;28;20166;-84
2022/03/04 02:15:09;;;;;;;23.90;13.40;;;-2.60;99.90;;;;;;5060130;28;20196;-84
2022/03/04 02:17:36;;;;;;;27.60;13.77;;;-2.10;99.90;;;;;;5058836;28;20170;-84
2022/03/04 02:20:07;;;;;;;30.75;13.43;;;-2.50;99.90;;;;;;5040981;28;20291;-84
2022/03/04 02:22:33;;;;;;;25.90;13.32;;;-2.60;99.90;;;;;;5039724;28;20165;-81
2022/03/04 02:24:59;;;;;;;31.05;13.73;;;-2.60;99.90;;;;;;5068776;28;20192;-85
2022/03/04 02:27:24;;;;;;;30.40;15.40;;;-2.60;99.90;;;;;;5059595;28;20212;-84
2022/03/04 02:29:50;;;;;;;33.37;17.80;;;-2.60;99.90;;;;;;5043449;28;20185;-86
2022/03/04 02:32:15;;;;;;;29.73;16.03;;;-2.70;99.90;;;;;;5032220;28;20231;-85
2022/03/04 02:34:41;;;;;;;33.17;15.57;;;-2.60;99.90;;;;;;5038426;28;20211;-84
2022/03/04 02:37:08;;;;;;;24.30;12.37;;;-2.60;99.90;;;;;;5053300;28;20249;-84
2022/03/04 02:39:33;;;;;;;28.00;13.82;;;-2.60;99.90;;;;;;5059657;28;20197;-84
2022/03/04 02:41:59;;;;;;;32.97;15.03;;;-2.70;99.90;;;;;;5044250;28;20180;-85
2022/03/04 02:44:24;;;;;;;19.83;9.47;;;-3.10;99.90;;;;;;5064934;28;20717;-86
2022/03/04 02:46:50;;;;;;;25.20;12.60;;;-2.70;99.90;;;;;;5057699;28;20412;-86
2022/03/04 02:49:16;;;;;;;28.70;15.33;;;-2.80;99.90;;;;;;5040625;28;20178;-85
2022/03/04 02:51:41;;;;;;;25.73;13.77;;;-2.80;99.90;;;;;;5040355;28;20176;-84
2022/03/04 02:54:07;;;;;;;25.20;13.03;;;-2.80;99.90;;;;;;5040403;28;20270;-86
2022/03/04 02:56:33;;;;;;;28.73;14.23;;;;;;;;;;5057741;28;20161;-86
2022/03/04 02:58:59;;;;;;;30.10;14.65;;;-2.90;99.90;;;;;;5057971;28;20197;-88
2022/03/04 03:01:25;;;;;;;30.83;16.13;;;-3.00;99.90;;;;;;5038923;28;20204;-86
2022/03/04 03:03:51;;;;;;;24.85;12.73;;;;;;;;;;5039913;28;20739;-86
2022/03/04 03:06:18;;;;;;;30.30;14.52;;;;;;;;;;5058083;28;20169;-86
2022/03/04 03:08:43;;;;;;;29.90;14.15;;;-3.20;99.90;;;;;;5055728;28;20714;-85
2022/03/04 03:11:09;;;;;;;32.80;15.90;;;;;;;;;;5058354;28;20209;-86
2022/03/04 03:13:35;;;;;;;31.47;13.97;;;-3.10;99.90;;;;;;5058217;28;20268;-86
2022/03/04 03:16:02;;;;;;;32.03;15.50;;;;;;;;;;5041128;28;20430;-88
2022/03/04 03:18:28;;;;;;;31.30;16.45;;;-3.00;99.90;;;;;;5058350;28;20188;-87
2022/03/04 03:20:53;;;;;;;25.60;14.07;;;-3.00;99.90;;;;;;5058723;28;20154;-84
2022/03/04 03:23:19;;;;;;;31.37;15.17;;;;;;;;;;5059021;28;20158;-84
2022/03/04 03:25:45;;;;;;;28.05;14.52;;;-3.10;99.90;;;;;;5041923;28;20688;-85
2022/03/04 03:28:11;;;;;;;31.67;14.33;;;-3.20;99.90;;;;;;5042157;28;20193;-84
2022/03/04 03:30:36;;;;;;;27.87;13.90;;;-3.20;99.90;;;;;;5041185;28;20205;-85
2022/03/04 03:33:02;;;;;;;37.30;16.47;;;-3.40;99.90;;;;;;5057478;28;20181;-86
2022/03/04 03:35:28;;;;;;;29.30;13.40;;;;;;;;;;5057530;28;20662;-85
2022/03/04 03:37:53;;;;;;;34.97;15.23;;;-3.30;99.90;;;;;;5058426;28;20153;-85
2022/03/04 03:40:19;;;;;;;29.53;14.80;;;-3.30;99.90;;;;;;5058794;28;20201;-86
2022/03/04 03:42:45;;;;;;;26.43;12.17;;;-3.50;99.90;;;;;;5043853;28;20244;-85
2022/03/04 03:45:11;;;;;;;31.13;16.10;;;-3.20;99.90;;;;;;5044616;28;20243;-85
2022/03/04 03:47:38;;;;;;;28.83;13.68;;;-3.20;99.90;;;;;;5043757;28;20582;-87
2022/03/04 03:50:05;;;;;;;28.98;15.02;;;-3.30;99.90;;;;;;5063231;28;20175;-87
2022/03/04 03:52:31;;;;;;;36.78;14.27;;;-3.30;99.90;;;;;;5062310;28;20664;-85
2022/03/04 03:54:57;;;;;;;30.87;14.37;;;-3.30;99.90;;;;;;5062353;28;20193;-87
2022/03/04 03:57:23;;;;;;;31.48;15.15;;;-2.90;99.90;;;;;;5045232;28;20184;-88
2022/03/04 03:59:49;;;;;;;30.30;14.47;;;-2.80;99.90;;;;;;5063353;28;20181;-86
2022/03/04 04:02:15;;;;;;;40.45;18.15;;;-3.30;99.90;;;;;;5046624;28;20172;-86
2022/03/04 04:04:41;;;;;;;40.47;18.03;;;-3.20;99.90;;;;;;5063475;28;20244;-87
2022/03/04 04:07:09;;;;;;;30.67;14.27;;;-3.10;99.90;;;;;;5046243;28;20195;-87
2022/03/04 04:09:35;;;;;;;34.20;15.02;;;-3.10;99.90;;;;;;5047227;28;20556;-86
2022/03/04 04:12:01;;;;;;;38.90;15.20;;;;;;;;;;5046752;28;20173;-88
2022/03/04 04:14:27;;;;;;;28.80;12.90;;;-3.10;99.90;;;;;;5062894;28;20283;-86
2022/03/04 04:16:54;;;;;;;32.65;15.65;;;-3.10;99.90;;;;;;5060268;28;20720;-88
2022/03/04 04:19:21;;;;;;;34.00;16.58;;;-3.40;99.90;;;;;;5063132;28;20245;-87
2022/03/04 04:21:47;;;;;;;31.13;15.57;;;;;;;;;;5061737;28;20173;-86
2022/03/04 04:24:13;;;;;;;38.28;18.48;;;-2.90;99.90;;;;;;5062573;28;20207;-86
2022/03/04 04:26:39;;;;;;;38.83;17.87;;;-3.00;99.90;;;;;;5062354;28;20173;-86
2022/03/04 04:29:05;;;;;;;30.42;15.73;;;;;;;;;;5061937;28;20212;-85
2022/03/04 04:31:32;;;;;;;32.83;16.35;;;-2.90;99.90;;;;;;5030865;28;20178;-87
2022/03/04 04:33:59;;;;;;;33.97;17.33;;;-2.80;99.90;;;;;;5043284;28;20213;-89
2022/03/04 04:36:25;;;;;;;36.25;16.95;;;-2.80;99.90;;;;;;5033750;28;20188;-87
2022/03/04 04:38:51;;;;;;;33.60;18.70;;;;;;;;;;5041932;28;20197;-87
2022/03/04 04:41:17;;;;;;;36.13;18.67;;;;;;;;;;5045369;28;20432;-89
2022/03/04 04:43:43;;;;;;;40.58;17.80;;;-2.70;99.90;;;;;;5035835;28;20435;-86
2022/03/04 04:46:09;;;;;;;34.57;17.20;;;;;;;;;;5061839;28;20229;-86
2022/03/04 04:48:35;;;;;;;34.75;17.48;;;;;;;;;;5064089;28;20173;-85
2022/03/04 04:51:01;;;;;;;39.97;19.38;;;-2.70;99.90;;;;;;5049060;28;20609;-85
2022/03/04 04:53:27;;;;;;;33.95;17.98;;;-2.50;99.90;;;;;;5046123;28;20169;-85
2022/03/04 04:55:57;;;;;;;38.05;17.80;;;-2.40;99.90;;;;;;5042516;28;20659;-85
2022/03/04 04:58:22;;;;;;;39.00;19.27;;;-2.40;99.90;;;;;;5060133;28;20188;-86
2022/03/04 05:00:53;;;;;;;29.67;16.73;;;-2.40;99.90;;;;;;5042754;28;20201;-87
2022/03/04 05:03:23;;;;;;;35.30;16.42;;;-2.50;99.90;;;;;;5059587;28;20248;-86
2022/03/04 05:05:49;;;;;;;37.45;17.50;;;-2.80;99.90;;;;;;5040352;28;20205;-84
2022/03/04 05:08:16;;;;;;;34.40;17.42;;;-2.50;99.90;;;;;;5059712;28;20255;-85
2022/03/04 05:10:42;;;;;;;31.30;15.30;;;-2.90;99.90;;;;;;5044143;28;20197;-84
2022/03/04 05:13:07;;;;;;;36.23;16.67;;;-2.90;99.90;;;;;;5060634;28;20791;-85
2022/03/04 05:15:33;;;;;;;33.20;18.37;;;-2.40;99.90;;;;;;5059812;28;20500;-85
2022/03/04 05:17:58;;;;;;;35.90;19.37;;;-3.00;99.90;;;;;;5061212;28;20173;-86
2022/03/04 05:20:24;;;;;;;34.97;17.40;;;-3.10;99.90;;;;;;5064721;28;20239;-86
2022/03/04 05:22:50;;;;;;;44.57;20.03;;;-3.10;99.90;;;;;;5061755;28;20165;-89
2022/03/04 05:25:15;;;;;;;37.20;17.90;;;;;;;;;;5046367;28;20204;-87
2022/03/04 05:27:41;;;;;;;31.85;15.50;;;-3.10;99.90;;;;;;5028864;28;20276;-86
2022/03/04 05:30:08;;;;;;;35.73;19.60;;;-3.10;99.90;;;;;;5040357;28;20180;-88
2022/03/04 05:32:33;;;;;;;27.30;15.15;;;-3.30;99.90;;;;;;5043490;28;20268;-87
2022/03/04 05:34:59;;;;;;;38.93;18.03;;;-3.40;99.90;;;;;;5054587;28;20230;-87
2022/03/04 05:37:25;;;;;;;42.07;17.07;;;-3.40;99.90;;;;;;5074655;28;20236;-87
2022/03/04 05:39:52;;;;;;;42.97;18.03;;;-3.50;99.90;;;;;;5054481;28;20197;-85
2022/03/04 05:42:18;;;;;;;34.05;18.13;;;-3.50;99.90;;;;;;5069740;28;20172;-84
2022/03/04 05:44:43;;;;;;;30.08;14.95;;;-3.50;99.90;;;;;;5038738;28;20277;-85
2022/03/04 05:47:10;;;;;;;49.57;22.10;;;-3.00;99.90;;;;;;5036555;28;20205;-84
2022/03/04 05:49:35;;;;;;;45.92;17.80;;;-3.50;99.90;;;;;;5039288;28;20185;-84
2022/03/04 05:52:01;;;;;;;40.07;19.33;;;;;;;;;;5027865;28;20181;-85
2022/03/04 05:54:27;;;;;;;30.50;15.45;;;-3.50;99.90;;;;;;5052843;28;20208;-85
2022/03/04 05:56:52;;;;;;;34.60;16.63;;;-3.50;99.90;;;;;;5057910;28;20180;-85
2022/03/04 05:59:18;;;;;;;34.83;17.37;;;-3.50;99.90;;;;;;5070828;28;20189;-84
2022/03/04 06:01:44;;;;;;;42.30;18.00;;;-3.40;99.90;;;;;;5054409;28;20284;-85
2022/03/04 06:04:10;;;;;;;38.00;17.90;;;;;;;;;;5035621;28;20193;-85
2022/03/04 06:06:43;;;;;;;36.73;17.93;;;-3.50;99.90;;;;;;5053688;28;20751;-84
2022/03/04 06:09:08;;;;;;;34.78;18.65;;;-3.50;99.90;;;;;;5035672;28;20423;-84
2022/03/04 06:11:34;;;;;;;34.60;17.83;;;;;;;;;;5034787;28;20177;-85
2022/03/04 06:14:00;;;;;;;35.35;17.15;;;;;;;;;;5036105;28;20440;-85
2022/03/04 06:16:26;;;;;;;34.73;17.30;;;-3.50;99.90;;;;;;5035293;28;20223;-85
2022/03/04 06:18:52;;;;;;;35.73;18.87;;;;;;;;;;5035244;28;20451;-85
2022/03/04 06:21:18;;;;;;;40.00;19.30;;;;;;;;;;5052684;28;21115;-85
2022/03/04 06:23:44;;;;;;;39.38;21.02;;;-3.30;99.90;;;;;;5051765;28;20173;-85
2022/03/04 06:26:10;;;;;;;35.10;18.90;;;-3.20;99.90;;;;;;5033403;28;20196;-85
2022/03/04 06:28:36;;;;;;;36.10;17.57;;;-3.10;99.90;;;;;;5051829;28;20411;-85
2022/03/04 06:31:01;;;;;;;44.73;19.97;;;-2.80;99.90;;;;;;5034033;28;20169;-84
2022/03/04 06:33:30;;;;;;;40.07;19.30;;;-2.80;99.90;;;;;;5036214;28;20169;-86
2022/03/04 06:35:56;;;;;;;44.95;20.20;;;-2.70;99.90;;;;;;5034956;28;20172;-85
2022/03/04 06:38:22;;;;;;;39.95;21.60;;;-1.80;99.90;;;;;;5034566;28;20177;-85
2022/03/04 06:40:48;;;;;;;38.20;17.80;;;-0.40;99.90;;;;;;5049235;28;20225;-85
2022/03/04 06:43:14;;;;;;;32.38;17.25;;;1.20;99.90;;;;;;5033119;28;20188;-85
2022/03/04 06:45:44;;;;;;;29.17;15.87;;;3.00;99.90;;;;;;5033335;28;20205;-85
2022/03/04 06:48:10;;;;;;;27.40;16.40;;;4.60;99.90;;;;;;5044001;28;20179;-85
2022/03/04 06:50:36;;;;;;;31.58;16.83;;;6.20;99.90;;;;;;5045417;28;20181;-85
2022/03/04 06:53:02;;;;;;;25.77;16.53;;;7.70;99.90;;;;;;5029549;28;20336;-85
2022/03/04 06:55:32;;;;;;;29.15;16.73;;;10.00;99.90;;;;;;5048304;28;20207;-85
2022/03/04 06:57:57;;;;;;;34.80;17.13;;;10.10;99.90;;;;;;5031824;28;20208;-86
2022/03/04 07:00:27;;;;;;;33.93;18.10;;;11.20;99.90;;;;;;5032594;28;20250;-86
2022/03/04 07:02:53;;;;;;;29.55;16.58;;;12.10;99.90;;;;;;5038874;28;20169;-85
2022/03/04 07:05:23;;;;;;;25.73;17.30;;;12.40;95.40;;;;;;5047410;28;20204;-84
2022/03/04 07:07:50;;;;;;;29.05;18.33;;;14.10;90.60;;;;;;5036115;28;20497;-86
2022/03/04 07:10:16;;;;;;;31.95;17.92;;;14.10;90.90;;;;;;5030357;28;20197;-85
2022/03/04 07:12:42;;;;;;;33.42;19.05;;;14.80;85.70;;;;;;5029753;28;20559;-85
2022/03/04 07:15:08;;;;;;;32.60;20.43;;;15.70;79.60;;;;;;5047362;28;20205;-84
2022/03/04 07:17:37;;;;;;;40.53;22.42;;;15.60;73.70;;;;;;5029832;28;20185;-84
2022/03/04 07:20:05;;;;;;;32.80;19.25;;;16.10;68.60;;;;;;5025432;28;20215;-85
2022/03/04 07:22:30;;;;;;;31.77;18.80;;;16.30;64.50;;;;;;5055619;28;20181;-84
2022/03/04 07:24:57;;;;;;;28.03;19.23;;;16.30;61.30;;;;;;5036583;28;21296;-85
2022/03/04 07:27:22;;;;;;;31.87;21.07;;;15.90;59.40;;;;;;5053270;28;20188;-86
2022/03/04 07:29:48;;;;;;;33.97;20.50;;;16.10;59.50;;;;;;5053943;28;21237;-86
2022/03/04 07:32:13;;;;;;;32.60;20.00;;;16.00;57.80;;;;;;5035688;28;20193;-86
2022/03/04 07:34:39;;;;;;;32.27;21.00;;;15.60;58.10;;;;;;5055047;28;20215;-85
2022/03/04 07:37:05;;;;;;;38.43;20.97;;;16.20;59.00;;;;;;5037828;28;20215;-85
2022/03/04 07:39:31;;;;;;;29.23;18.73;;;17.00;57.70;;;;;;5054992;28;20716;-85
2022/03/04 07:41:57;;;;;;;39.67;21.27;;;17.30;56.20;;;;;;5051687;28;20261;-85
2022/03/04 07:44:23;;;;;;;35.40;22.23;;;18.20;56.70;;;;;;5033037;28;20475;-85
2022/03/04 07:46:49;;;;;;;32.57;21.93;;;19.50;55.40;;;;;;5033102;28;20450;-85
2022/03/04 07:49:15;;;;;;;38.77;20.97;;;19.20;49.60;;;;;;5047415;28;20427;-85
2022/03/04 07:51:40;;;;;;;28.80;21.40;;;18.90;51.40;;;;;;5049684;28;20626;-84
2022/03/04 07:54:06;;;;;;;39.43;21.93;;;18.90;50.70;;;;;;5047928;28;20251;-84
2022/03/04 07:56:32;;;;;;;33.33;22.90;;;19.50;51.60;;;;;;5030907;28;20196;-84
2022/03/04 07:58:57;;;;;;;33.23;21.50;;;19.00;47.80;;;;;;5043476;28;20236;-85
2022/03/04 08:01:23;;;;;;;29.30;20.30;;;19.80;49.00;;;;;;5029460;28;20572;-85
2022/03/04 08:03:48;;;;;;;37.57;22.20;;;20.00;47.20;;;;;;5030088;28;20201;-85
2022/03/04 08:06:15;;;;;;;30.30;21.50;;;20.50;46.40;;;;;;5031433;28;20181;-84
2022/03/04 08:08:40;;;;;;;31.23;20.80;;;19.90;44.90;;;;;;5048807;28;20694;-85
2022/03/04 08:11:06;;;;;;;37.27;23.93;;;20.10;46.50;;;;;;5052990;28;20490;-86
2022/03/04 08:13:34;;;;;;;37.03;23.70;;;20.20;44.10;;;;;;5041232;28;20169;-85
2022/03/04 08:16:00;;;;;;;34.83;21.07;;;20.20;44.30;;;;;;5035831;28;20510;-85
2022/03/04 08:18:26;;;;;;;31.80;22.40;;;19.80;44.10;;;;;;5035515;28;20428;-86
2022/03/04 08:20:51;;;;;;;40.87;22.10;;;17.90;44.50;;;;;;5033672;28;20474;-86
2022/03/04 08:23:18;;;;;;;40.40;22.83;;;17.80;45.60;;;;;;5053513;28;20177;-86
2022/03/04 08:25:44;;;;;;;35.93;22.20;;;17.80;46.60;;;;;;5056559;28;20185;-85
2022/03/04 08:28:10;;;;;;;30.10;21.10;;;17.70;46.40;;;;;;5030511;28;20474;-85
2022/03/04 08:30:35;;;;;;;34.97;20.93;;;18.50;46.90;;;;;;5039498;28;20428;-86
2022/03/04 08:33:01;;;;;;;35.70;22.90;;;18.70;45.60;;;;;;5024211;28;20432;-84
2022/03/04 08:35:26;;;;;;;31.07;20.87;;;18.70;46.00;;;;;;5051924;28;21279;-85
2022/03/04 08:37:53;;;;;;;36.50;20.80;;;18.20;45.80;;;;;;5053331;28;20195;-85
2022/03/04 08:40:19;;;;;;;39.77;23.30;;;16.90;47.00;;;;;;5035236;28;20274;-85
2022/03/04 08:42:45;;;;;;;32.20;22.70;;;;;;;;;;5042524;28;20485;-86
2022/03/04 08:45:13;;;;;;;39.67;23.97;;;16.60;47.60;;;;;;5064454;28;20201;-86
2022/03/04 08:47:43;;;;;;;42.93;21.60;;;16.10;48.30;;;;;;5053718;28;20926;-85
2022/03/04 08:50:13;;;;;;;36.37;22.93;;;15.50;49.30;;;;;;5050033;28;20433;-85
2022/03/04 08:52:38;;;;;;;35.73;22.93;;;16.60;50.80;;;;;;5038829;28;20424;-85
2022/03/04 08:55:14;;;;;;;35.67;22.57;;;15.70;48.30;;;;;;5067112;28;20538;-85
2022/03/04 08:57:44;;;;;;;39.97;21.83;;;15.30;49.60;;;;;;5035800;28;20183;-85
2022/03/04 09:00:10;;;;;;;35.77;22.13;;;15.80;50.00;;;;;;5053986;28;20475;-87
2022/03/04 09:02:39;;;;;;;33.50;21.50;;;17.40;49.40;;;;;;5024498;28;20471;-85
2022/03/04 09:05:05;;;;;;;35.87;22.37;;;18.50;48.70;;;;;;5052458;28;20442;-86
2022/03/04 09:07:35;;;;;;;38.33;22.70;;;18.60;47.10;;;;;;5035288;28;20411;-85
2022/03/04 09:10:01;;;;;;;37.33;22.50;;;19.00;48.00;;;;;;5035469;28;20825;-86
2022/03/04 09:12:27;;;;;;;38.10;23.40;;;19.00;45.70;;;;;;5053215;28;20415;-85
2022/03/04 09:14:54;;;;;;;39.20;23.60;;;17.70;45.90;;;;;;5053032;28;20470;-84
2022/03/04 09:17:20;;;;;;;39.20;22.70;;;18.10;49.30;;;;;;5035517;28;20177;-85
2022/03/04 09:19:47;;;;;;;39.57;24.83;;;17.00;47.30;;;;;;5035434;28;20550;-84
2022/03/04 09:22:12;;;;;;;38.67;24.50;;;17.30;48.60;;;;;;5055022;28;21021;-85
2022/03/04 09:24:38;;;;;;;35.57;22.33;;;17.70;47.10;;;;;;5038084;28;20498;-85
2022/03/04 09:27:03;;;;;;;35.90;22.80;;;17.50;46.50;;;;;;5042541;28;20173;-84
2022/03/04 09:29:29;;;;;;;40.83;22.87;;;16.60;46.50;;;;;;5035443;28;20182;-85
2022/03/04 09:31:55;;;;;;;34.77;22.90;;;16.00;46.60;;;;;;5038835;28;20188;-84
2022/03/04 09:34:20;;;;;;;35.80;22.50;;;15.80;47.90;;;;;;5053577;28;20201;-84
2022/03/04 09:36:46;;;;;;;35.60;20.50;;;16.10;48.70;;;;;;5043471;28;20196;-85
2022/03/04 09:39:11;;;;;;;33.87;22.37;;;16.30;47.50;;;;;;5038415;28;20205;-84
2022/03/04 09:41:43;;;;;;;36.77;23.43;;;15.70;47.80;;;;;;5053420;28;20184;-85
2022/03/04 09:44:09;;;;;;;38.20;21.47;;;14.30;48.80;;;;;;5037256;28;20224;-85
2022/03/04 09:46:34;;;;;;;34.93;22.20;;;15.10;49.50;;;;;;5039539;28;20431;-85
2022/03/04 09:49:00;;;;;;;38.93;22.40;;;15.30;49.00;;;;;;5053083;28;20447;-85
2022/03/04 09:51:28;;;;;;;42.20;23.47;;;15.60;48.40;;;;;;5049653;28;20575;-84
2022/03/04 09:53:54;;;;;;;38.60;22.77;;;15.60;49.00;;;;;;5033375;28;20233;-85
2022/03/04 09:56:20;;;;;;;40.13;24.10;;;15.60;48.70;;;;;;5054632;28;20471;-86
2022/03/04 09:58:47;;;;;;;45.73;25.10;;;14.00;50.60;;;;;;5056145;28;20181;-84
2022/03/04 10:01:14;;;;;;;34.40;22.10;;;14.10;51.20;;;;;;5051553;28;20438;-85
2022/03/04 10:03:49;;;;;;;39.37;23.13;;;14.70;50.00;;;;;;5034558;28;20430;-84
2022/03/04 10:06:16;;;;;;;36.27;23.70;;;14.80;50.80;;;;;;5037716;28;20431;-85
2022/03/04 10:08:45;;;;;;;37.20;21.80;;;15.80;49.80;;;;;;5033873;28;20439;-85
2022/03/04 10:11:12;;;;;;;39.00;21.80;;;15.00;47.60;;;;;;5035324;28;20432;-86
2022/03/04 10:13:46;;;;;;;37.60;22.73;;;12.90;50.00;;;;;;5047259;28;20935;-85
2022/03/04 10:16:25;;;;;;;35.72;22.25;;;12.70;50.40;;;;;;5029445;28;20308;-85
2022/03/04 10:19:14;;;;;;;37.40;23.65;;;11.50;52.00;;;;;;5033149;28;20561;-84
2022/03/04 10:21:44;;;;;;;36.88;21.65;;;10.00;53.90;;;;;;5054296;28;20207;-85
2022/03/04 10:24:10;;;;;;;40.60;23.92;;;9.50;57.90;;;;;;5051631;28;20205;-85
2022/03/04 10:26:37;;;;;;;43.23;24.30;;;9.30;58.50;;;;;;5033611;28;20535;-85
2022/03/04 10:29:17;;;;;;;40.50;23.33;;;9.00;62.50;;;;;;5029294;28;20716;-85
2022/03/04 10:32:06;;;;;;;36.90;22.25;;;9.00;61.00;;;;;;5051371;28;20200;-84
2022/03/04 10:34:46;;;;;;;43.78;22.63;;;8.90;62.10;;;;;;5051592;28;20204;-83
2022/03/04 10:37:12;;;;;;;39.75;24.30;;;8.70;62.90;;;;;;5054572;28;20181;-83
2022/03/04 10:39:59;;;;;;;40.33;23.95;;;8.60;63.00;;;;;;5034508;28;20197;-84
2022/03/04 10:42:44;;;;;;;40.83;24.75;;;8.40;65.00;;;;;;5051703;28;20189;-84
2022/03/04 10:45:19;;;;;;;40.53;23.05;;;8.50;66.20;;;;;;5052862;28;20215;-82
2022/03/04 10:48:11;;;;;;;38.08;21.25;;;8.40;66.60;;;;;;5050624;28;20226;-84
2022/03/04 10:50:43;;;;;;;44.10;22.88;;;8.40;66.70;;;;;;5037594;28;20177;-84
2022/03/04 10:53:13;;;;;;;37.67;21.98;;;8.60;66.80;;;;;;5039615;28;20726;-84
2022/03/04 10:55:50;;;;;;;39.35;22.67;;;8.50;69.50;;;;;;5051624;28;20247;-86
2022/03/04 10:58:28;;;;;;;38.40;22.15;;;8.60;69.40;;;;;;5050814;28;20747;-84
2022/03/04 11:00:59;;;;;;;34.97;20.20;;;8.80;69.40;;;;;;5034700;28;20206;-83
2022/03/04 11:03:34;;;;;;;40.85;21.73;;;8.90;66.30;;;;;;5053090;28;20704;-84
2022/03/04 11:06:07;;;;;;;42.03;22.33;;;8.70;65.50;;;;;;5035997;28;20170;-84
2022/03/04 11:08:33;;;;;;;37.03;22.58;;;8.60;66.60;;;;;;5056366;28;20207;-86
2022/03/04 11:11:00;;;;;;;42.47;23.35;;;8.70;65.20;;;;;;5038719;28;20208;-83
2022/03/04 11:13:29;;;;;;;36.00;20.33;;;8.80;66.30;;;;;;5053018;28;20184;-86
2022/03/04 11:15:55;;;;;;;42.83;22.77;;;8.80;65.00;;;;;;5036230;28;20188;-85
2022/03/04 11:18:22;;;;;;;52.37;20.70;;;8.60;66.20;;;;;;5037506;28;20181;-86
2022/03/04 11:20:53;;;;;;;32.33;20.65;;;8.70;65.30;;;;;;5037102;28;20188;-84
2022/03/04 11:23:21;;;;;;;39.35;22.45;;;8.90;64.70;;;;;;5037408;28;20189;-83
2022/03/04 11:25:56;;;;;;;37.03;21.45;;;9.00;62.50;;;;;;5052880;28;20197;-84
2022/03/04 11:28:25;;;;;;;37.65;19.05;;;9.20;64.00;;;;;;5036750;28;20704;-86
2022/03/04 11:30:56;;;;;;;40.35;21.08;;;9.30;64.40;;;;;;5040477;28;20168;-86
2022/03/04 11:33:33;;;;;;;37.42;21.48;;;9.40;63.60;;;;;;5028644;28;20208;-85
2022/03/04 11:36:15;;;;;;;37.17;21.13;;;9.60;62.60;;;;;;5050360;28;20554;-85
2022/03/04 11:38:44;;;;;;;40.13;20.30;;;9.70;61.70;;;;;;5039230;28;20654;-85
2022/03/04 11:41:23;;;;;;;37.28;21.00;;;9.50;60.40;;;;;;5061033;28;20546;-86
2022/03/04 11:43:50;;;;;;;34.95;21.02;;;9.40;59.60;;;;;;5056866;28;20227;-86
2022/03/04 11:46:20;;;;;;;38.70;20.20;;;9.40;60.50;;;;;;5035833;28;20184;-84
2022/03/04 11:48:47;;;;;;;36.50;20.30;;;9.30;60.20;;;;;;5039989;28;20189;-84
2022/03/04 11:51:20;;;;;;;33.78;21.48;;;9.40;63.70;;;;;;5035244;28;20257;-84
2022/03/04 11:54:25;;;;;;;37.95;21.23;;;9.20;61.70;;;;;;5056541;28;20548;-84
2022/03/04 11:56:52;;;;;;;33.92;18.08;;;9.20;62.80;;;;;;4989121;28;20362;-83
2022/03/04 11:59:20;;;;;;;39.67;19.48;;;9.00;64.80;;;;;;5024406;28;20687;-84
2022/03/04 12:01:47;;;;;;;32.75;19.60;;;8.90;62.00;;;;;;5030442;28;20243;-84
2022/03/04 12:04:15;;;;;;;40.63;20.27;;;8.80;62.90;;;;;;5058110;28;20260;-84
2022/03/04 12:06:41;;;;;;;34.22;19.90;;;9.10;61.50;;;;;;5059916;28;20166;-84
2022/03/04 12:09:30;;;;;;;35.72;19.45;;;9.10;61.40;;;;;;5038247;28;20189;-83
2022/03/04 12:12:28;;;;;;;38.30;20.90;;;9.20;60.60;;;;;;5057141;28;20232;-84
2022/03/04 12:14:54;;;;;;;40.30;21.42;;;9.20;61.20;;;;;;4989338;28;20212;-84
2022/03/04 12:17:21;;;;;;;35.15;19.85;;;9.20;62.20;;;;;;5042424;28;20191;-85
2022/03/04 12:19:48;;;;;;;31.33;17.20;;;9.20;60.90;;;;;;5062559;28;20215;-84
2022/03/04 12:22:15;;;;;;;35.22;21.75;;;9.20;60.10;;;;;;5039181;28;20177;-84
2022/03/04 12:25:01;;;;;;;38.55;21.00;;;9.20;60.30;;;;;;5036501;28;20685;-84
2022/03/04 12:27:42;;;;;;;34.00;20.52;;;8.70;61.80;;;;;;5035207;28;20209;-84
2022/03/04 12:30:23;;;;;;;32.72;18.75;;;8.50;62.30;;;;;;5037524;28;21230;-83
2022/03/04 12:32:51;;;;;;;33.25;18.90;;;8.80;66.10;;;;;;5057101;28;20173;-84
2022/03/04 12:35:17;;;;;;;34.28;19.85;;;9.10;62.40;;;;;;5057164;28;20605;-84
2022/03/04 12:37:43;;;;;;;33.78;21.50;;;9.20;59.70;;;;;;5041372;28;20231;-84
2022/03/04 12:40:10;;;;;;;41.33;19.70;;;9.20;59.20;;;;;;5042388;28;20200;-84